Master Jet — 5BKD3 — position and weather

sailwx.info

Track history (hours):
 
Tides and Currents Weather Stations Pressure Air Temp Water Temp Dewpoint Dewpoint Depression Visibility Wind Speed Wind Dir Waves Ship Positions

Master Jet

Last reported at 2016-Jul-01 18:33 UTC. Time now 2016-Jul-01 19:04 UTC.
Position N 37°08' E 025°21'.

Length 74 m; draft 2.9 m.

Type: Ship. MMSI: 209349000.

Date/timePositionNaut miles runAvg speedWind from/ knotsBaromVisibWave heightAir tempDewpointWater temp
2016-Jul-01 18:33N 37°08' E 025°21'9 9.3
2016-Jul-01 17:33N 37°10' E 025°10'1919.5
2016-Jul-01 16:34N 37°28' E 025°19'1616.1
2016-Jul-01 15:33N 37°35' E 025°01'4623.3
2016-Jul-01 13:34N 37°58' E 024°10'8 6.8
2016-Jul-01 12:23N 38°01' E 024°01'5226.0
2016-Jul-01 10:23N 37°36' E 024°59'1620.1
2016-Jul-01 09:34N 37°29' E 025°17'1717.2
2016-Jul-01 08:34N 37°12' E 025°11'5 4.6
2016-Jul-01 07:34N 37°10' E 025°16'5 0.4
2016-Jun-30 18:34N 37°06' E 025°21'7715.3
2016-Jun-30 13:33N 37°58' E 024°10'8 5.7
2016-Jun-30 12:12N 38°01' E 024°01'1726.1
2016-Jun-30 11:33N 37°55' E 024°21'3726.8
2016-Jun-30 10:12N 37°36' E 024°59'1320.1
2016-Jun-30 09:33N 37°30' E 025°14'1615.6
2016-Jun-30 08:33N 37°15' E 025°12'6 5.8
2016-Jun-30 07:33N 37°10' E 025°17'5 0.4
2016-Jun-29 18:33N 37°06' E 025°22'10 8.2
2016-Jun-29 17:18N 37°12' E 025°11'1720.8
2016-Jun-29 16:28N 37°28' E 025°19'5322.1
2016-Jun-29 14:05N 37°53' E 024°21'1325.1
2016-Jun-29 13:33N 37°59' E 024°06'4 3.5
2016-Jun-29 12:17N 38°01' E 024°01'5826.1
2016-Jun-29 10:03N 37°33' E 025°06'816.6
2016-Jun-29 09:33N 37°30' E 025°15'1615.9
2016-Jun-29 08:33N 37°14' E 025°12'6 6.0
2016-Jun-29 07:33N 37°10' E 025°17'11 0.9
2016-Jun-28 19:04N 36°59' E 025°19'814.7
2016-Jun-28 18:34N 37°06' E 025°22'1210.7
2016-Jun-28 17:29N 37°07' E 025°08'2324.8
2016-Jun-28 16:34N 37°28' E 025°19'1515.4
2016-Jun-28 15:34N 37°35' E 025°02'2924.9
2016-Jun-28 14:23N 37°49' E 024°30'2125.4
2016-Jun-28 13:34N 37°59' E 024°06'5 3.5
2016-Jun-28 12:09N 38°01' E 024°01'1525.4
2016-Jun-28 11:34N 37°54' E 024°17'3827.3
2016-Jun-28 10:10N 37°36' E 024°59'1219.5
2016-Jun-28 09:33N 37°30' E 025°13'31 2.2
2016-Jun-27 19:33N 37°00' E 025°19'12 8.3
2016-Jun-27 18:05N 37°10' E 025°10'1325.7
2016-Jun-27 17:34N 37°22' E 025°16'1211.6
2016-Jun-27 16:33N 37°32' E 025°09'4723.7
2016-Jun-27 14:33N 37°55' E 024°17'14 9.6
2016-Jun-27 13:05N 38°02' E 024°01'1120.0
2016-Jun-27 12:32N 37°56' E 024°13'4522.7
2016-Jun-27 10:33N 37°34' E 025°03'1514.9
2016-Jun-27 09:34N 37°28' E 025°19'1818.1
2016-Jun-27 08:33N 37°11' E 025°10'7 6.6
2016-Jun-27 07:34N 37°09' E 025°18'4 3.5
2016-Jun-27 06:34N 37°07' E 025°22'2221.9
2016-Jun-27 05:34N 37°24' E 025°04'4923.8
2016-Jun-27 03:29N 37°54' E 024°15'8 1.4
2016-Jun-26 21:33N 37°59' E 024°07'5125.6
2016-Jun-26 19:34N 37°34' E 025°03'1414.4
2016-Jun-26 18:33N 37°28' E 025°19'1913.2
2016-Jun-26 17:07N 37°10' E 025°10'1526.7
2016-Jun-26 16:34N 37°24' E 025°17'1312.9
2016-Jun-26 15:34N 37°33' E 025°06'5125.4
2016-Jun-26 13:32N 37°58' E 024°09'3 3.3
2016-Jun-26 12:34N 37°59' E 024°06'5125.7
2016-Jun-26 10:34N 37°34' E 025°03'1514.9
2016-Jun-26 09:34N 37°28' E 025°19'19 9.3
2016-Jun-26 07:34N 37°09' E 025°19'10 0.8
2016-Jun-25 19:34N 36°60' E 025°19'1110.9
2016-Jun-25 18:34N 37°10' E 025°15'4 4.3
2016-Jun-25 17:34N 37°12' E 025°11'1717.2
2016-Jun-25 16:33N 37°28' E 025°19'1717.2
2016-Jun-25 15:33N 37°36' E 025°01'4924.5
2016-Jun-25 13:34N 37°59' E 024°06'4 4.5
2016-Jun-25 12:33N 38°01' E 024°01'5626.1
2016-Jun-25 10:25N 37°34' E 025°03'1517.0
2016-Jun-25 09:33N 37°28' E 025°19'1717.4
2016-Jun-25 08:33N 37°12' E 025°11'6 5.7
2016-Jun-25 07:33N 37°10' E 025°18'11 1.1
2016-Jun-24 21:31N 36°59' E 025°19'18 8.9
2016-Jun-24 19:34N 37°16' E 025°13'1313.4
2016-Jun-24 18:34N 37°29' E 025°16'5321.5
2016-Jun-24 16:06N 37°54' E 024°18'1324.0
2016-Jun-24 15:34N 38°01' E 024°03'0 0.2
2016-Jun-24 14:33N 38°00' E 024°03'5123.5
2016-Jun-24 12:23N 37°35' E 024°60'1213.9
2016-Jun-24 11:33N 37°30' E 025°13'6 5.6
2016-Jun-24 10:33N 37°27' E 025°19'1 0.6
2016-Jun-24 09:34N 37°28' E 025°19'1716.7
2016-Jun-24 08:34N 37°13' E 025°11'5 5.3
2016-Jun-24 07:34N 37°10' E 025°17'6 0.4
2016-Jun-23 18:33N 37°06' E 025°22'10 8.9
2016-Jun-23 17:23N 37°10' E 025°10'1923.2
2016-Jun-23 16:34N 37°28' E 025°19'1717.2
2016-Jun-23 15:33N 37°36' E 025°00'5125.3
2016-Jun-23 13:34N 38°01' E 024°04'3 2.7
2016-Jun-23 12:31N 38°01' E 024°01'5226.2
2016-Jun-23 10:32N 37°37' E 024°59'1919.0
2016-Jun-23 09:33N 37°28' E 025°19'2210.8
2016-Jun-23 07:34N 37°06' E 025°22'7 0.6
2016-Jun-22 19:26N 36°59' E 025°19'2010.8
2016-Jun-22 17:33N 37°19' E 025°15'1413.2
2016-Jun-22 16:31N 37°32' E 025°09'5123.2
2016-Jun-22 14:19N 37°57' E 024°13'7 3.7
2016-Jun-22 12:33N 38°00' E 024°06'5628.1
2016-Jun-22 10:33N 37°32' E 025°08'1211.9
2016-Jun-22 09:31N 37°23' E 025°17'1311.1
2016-Jun-22 08:22N 37°10' E 025°14'8 0.6
2016-Jun-21 18:34N 37°06' E 025°22'  
Track history (hours):
 
Tides and Currents Weather Stations Pressure Air Temp Water Temp Dewpoint Dewpoint Depression Visibility Wind Speed Wind Dir Waves Ship Positions

Master Jet

Last reported at 2016-Jul-01 18:33 UTC. Time now 2016-Jul-01 19:04 UTC.
Position N 37°08' E 025°21'.

Length 74 m; draft 2.9 m.

Type: Ship. MMSI: 209349000.

Date/timePositionNaut miles runAvg speedWind from/ knotsBaromVisibWave heightAir tempDewpointWater temp
2016-Jul-01 18:33N 37°08' E 025°21'9 9.3
2016-Jul-01 17:33N 37°10' E 025°10'1919.5
2016-Jul-01 16:34N 37°28' E 025°19'1616.1
2016-Jul-01 15:33N 37°35' E 025°01'4623.3
2016-Jul-01 13:34N 37°58' E 024°10'8 6.8
2016-Jul-01 12:23N 38°01' E 024°01'5226.0
2016-Jul-01 10:23N 37°36' E 024°59'1620.1
2016-Jul-01 09:34N 37°29' E 025°17'1717.2
2016-Jul-01 08:34N 37°12' E 025°11'5 4.6
2016-Jul-01 07:34N 37°10' E 025°16'5 0.4
2016-Jun-30 18:34N 37°06' E 025°21'7715.3
2016-Jun-30 13:33N 37°58' E 024°10'8 5.7
2016-Jun-30 12:12N 38°01' E 024°01'1726.1
2016-Jun-30 11:33N 37°55' E 024°21'3726.8
2016-Jun-30 10:12N 37°36' E 024°59'1320.1
2016-Jun-30 09:33N 37°30' E 025°14'1615.6
2016-Jun-30 08:33N 37°15' E 025°12'6 5.8
2016-Jun-30 07:33N 37°10' E 025°17'5 0.4
2016-Jun-29 18:33N 37°06' E 025°22'10 8.2
2016-Jun-29 17:18N 37°12' E 025°11'1720.8
2016-Jun-29 16:28N 37°28' E 025°19'5322.1
2016-Jun-29 14:05N 37°53' E 024°21'1325.1
2016-Jun-29 13:33N 37°59' E 024°06'4 3.5
2016-Jun-29 12:17N 38°01' E 024°01'5826.1
2016-Jun-29 10:03N 37°33' E 025°06'816.6
2016-Jun-29 09:33N 37°30' E 025°15'1615.9
2016-Jun-29 08:33N 37°14' E 025°12'6 6.0
2016-Jun-29 07:33N 37°10' E 025°17'11 0.9
2016-Jun-28 19:04N 36°59' E 025°19'814.7
2016-Jun-28 18:34N 37°06' E 025°22'1210.7
2016-Jun-28 17:29N 37°07' E 025°08'2324.8
2016-Jun-28 16:34N 37°28' E 025°19'1515.4
2016-Jun-28 15:34N 37°35' E 025°02'2924.9
2016-Jun-28 14:23N 37°49' E 024°30'2125.4
2016-Jun-28 13:34N 37°59' E 024°06'5 3.5
2016-Jun-28 12:09N 38°01' E 024°01'1525.4
2016-Jun-28 11:34N 37°54' E 024°17'3827.3
2016-Jun-28 10:10N 37°36' E 024°59'1219.5
2016-Jun-28 09:33N 37°30' E 025°13'31 2.2
2016-Jun-27 19:33N 37°00' E 025°19'12 8.3
2016-Jun-27 18:05N 37°10' E 025°10'1325.7
2016-Jun-27 17:34N 37°22' E 025°16'1211.6
2016-Jun-27 16:33N 37°32' E 025°09'4723.7
2016-Jun-27 14:33N 37°55' E 024°17'14 9.6
2016-Jun-27 13:05N 38°02' E 024°01'1120.0
2016-Jun-27 12:32N 37°56' E 024°13'4522.7
2016-Jun-27 10:33N 37°34' E 025°03'1514.9
2016-Jun-27 09:34N 37°28' E 025°19'1818.1
2016-Jun-27 08:33N 37°11' E 025°10'7 6.6
2016-Jun-27 07:34N 37°09' E 025°18'4 3.5
2016-Jun-27 06:34N 37°07' E 025°22'2221.9
2016-Jun-27 05:34N 37°24' E 025°04'4923.8
2016-Jun-27 03:29N 37°54' E 024°15'8 1.4
2016-Jun-26 21:33N 37°59' E 024°07'5125.6
2016-Jun-26 19:34N 37°34' E 025°03'1414.4
2016-Jun-26 18:33N 37°28' E 025°19'1913.2
2016-Jun-26 17:07N 37°10' E 025°10'1526.7
2016-Jun-26 16:34N 37°24' E 025°17'1312.9
2016-Jun-26 15:34N 37°33' E 025°06'5125.4
2016-Jun-26 13:32N 37°58' E 024°09'3 3.3
2016-Jun-26 12:34N 37°59' E 024°06'5125.7
2016-Jun-26 10:34N 37°34' E 025°03'1514.9
2016-Jun-26 09:34N 37°28' E 025°19'19 9.3
2016-Jun-26 07:34N 37°09' E 025°19'10 0.8
2016-Jun-25 19:34N 36°60' E 025°19'1110.9
2016-Jun-25 18:34N 37°10' E 025°15'4 4.3
2016-Jun-25 17:34N 37°12' E 025°11'1717.2
2016-Jun-25 16:33N 37°28' E 025°19'1717.2
2016-Jun-25 15:33N 37°36' E 025°01'4924.5
2016-Jun-25 13:34N 37°59' E 024°06'4 4.5
2016-Jun-25 12:33N 38°01' E 024°01'5626.1
2016-Jun-25 10:25N 37°34' E 025°03'1517.0
2016-Jun-25 09:33N 37°28' E 025°19'1717.4
2016-Jun-25 08:33N 37°12' E 025°11'6 5.7
2016-Jun-25 07:33N 37°10' E 025°18'11 1.1
2016-Jun-24 21:31N 36°59' E 025°19'18 8.9
2016-Jun-24 19:34N 37°16' E 025°13'1313.4
2016-Jun-24 18:34N 37°29' E 025°16'5321.5
2016-Jun-24 16:06N 37°54' E 024°18'1324.0
2016-Jun-24 15:34N 38°01' E 024°03'0 0.2
2016-Jun-24 14:33N 38°00' E 024°03'5123.5
2016-Jun-24 12:23N 37°35' E 024°60'1213.9
2016-Jun-24 11:33N 37°30' E 025°13'6 5.6
2016-Jun-24 10:33N 37°27' E 025°19'1 0.6
2016-Jun-24 09:34N 37°28' E 025°19'1716.7
2016-Jun-24 08:34N 37°13' E 025°11'5 5.3
2016-Jun-24 07:34N 37°10' E 025°17'6 0.4
2016-Jun-23 18:33N 37°06' E 025°22'10 8.9
2016-Jun-23 17:23N 37°10' E 025°10'1923.2
2016-Jun-23 16:34N 37°28' E 025°19'1717.2
2016-Jun-23 15:33N 37°36' E 025°00'5125.3
2016-Jun-23 13:34N 38°01' E 024°04'3 2.7
2016-Jun-23 12:31N 38°01' E 024°01'5226.2
2016-Jun-23 10:32N 37°37' E 024°59'1919.0
2016-Jun-23 09:33N 37°28' E 025°19'2210.8
2016-Jun-23 07:34N 37°06' E 025°22'7 0.6
2016-Jun-22 19:26N 36°59' E 025°19'2010.8
2016-Jun-22 17:33N 37°19' E 025°15'1413.2
2016-Jun-22 16:31N 37°32' E 025°09'5123.2
2016-Jun-22 14:19N 37°57' E 024°13'7 3.7
2016-Jun-22 12:33N 38°00' E 024°06'5628.1
2016-Jun-22 10:33N 37°32' E 025°08'1211.9
2016-Jun-22 09:31N 37°23' E 025°17'1311.1
2016-Jun-22 08:22N 37°10' E 025°14'8 0.6
2016-Jun-21 18:34N 37°06' E 025°22'  

Dump ship's entire track history